METAR Data

Data at: 0629 UTC 28 Sep 2022

METAR for:KRKD (Rockland/Knox Cnty, ME, US)
Text:KRKD 280624Z AUTO 00000KT 1/4SM FG CLR 08/08 A2988 RMK AO2
Temperature: 8.0°C ( 46°F)
Dewpoint: 8.0°C ( 46°F) [RH = 100%]
Pressure (altimeter):29.88 inches Hg (1011.9 mb)
Winds:calm
Visibility: 0.25 sm ( 0.40 km)
Ceiling:at least 12,000 feet AGL
Clouds:sky clear below 12,000 feet AGL
Weather:FG (fog)
QC Flag:automated observation with no human augmentation